EFHK/HEL METAR and TAF weather

Enter ICAO airport designator
Station Type Date Time Source
EFHK METAR 2020/09/30 15:20 UTC NOAA

EFHK 301520Z 10004KT 070V130 9999 FEW013 SCT045 13/11 Q1021 NOSIG


Station Type Date Time Source
EFHK Decoded METAR 2020/09/30 15:20 UTC NOAA

Helsinki-Vantaa, Finland (EFHK) 60-19N 024-58E 56M
Sep 30, 2020 - 11:20 AM EDT / 2020.09.30 1520 UTC
Wind: from the E (100 degrees) at 5 MPH (4 KT) (direction variable):0
Visibility: greater than 7 mile(s):0
Sky conditions: partly cloudy
Temperature: 55 F (13 C)
Dew Point: 51 F (11 C)
Relative Humidity: 87%
Pressure (altimeter): 30.15 in. Hg (1021 hPa)
ob: EFHK 301520Z 10004KT 070V130 9999 FEW013 SCT045 13/11 Q1021 NOSIG
cycle: 15

Station Type Date Time Source
EFHK TAF 2020/09/30 15:42 UTC NOAA

TAF TAF EFHK 301426Z 3015/0115 11008KT 9999 FEW015 BKN030 PROB30 3022/3024 6000 BKN004
TEMPO 0100/0106 4000 BR BKN004 PROB30 0103/0105 0500 FG VV001

Example: see airport list